createdAt,value
2023-05-04T00:00:51.963Z,95633.00
2023-05-04T00:01:52.030Z,95633.00
2023-05-04T00:02:52.163Z,95633.00
2023-05-04T00:03:52.313Z,95637.00
2023-05-04T00:04:52.262Z,95635.00
2023-05-04T00:05:52.134Z,95633.00
2023-05-04T00:06:52.183Z,95633.00
2023-05-04T00:07:52.195Z,95633.00
2023-05-04T00:08:52.246Z,95633.00
2023-05-04T00:09:52.310Z,95635.00
2023-05-04T00:10:52.307Z,95635.00
2023-05-04T00:11:52.358Z,95635.00
2023-05-04T00:12:52.451Z,95635.00
2023-05-04T00:13:52.412Z,95635.00
2023-05-04T00:14:52.456Z,95631.00
2023-05-04T00:15:52.531Z,95633.00
2023-05-04T00:16:52.541Z,95633.00
2023-05-04T00:17:52.558Z,95635.00
2023-05-04T00:18:52.589Z,95631.00
2023-05-04T00:19:52.589Z,95633.00
2023-05-04T00:20:52.638Z,95635.00
2023-05-04T00:21:52.685Z,95633.00
2023-05-04T00:22:52.690Z,95631.00
2023-05-04T00:23:52.700Z,95629.00
2023-05-04T00:24:52.726Z,95625.00
2023-05-04T00:25:52.769Z,95625.00
2023-05-04T00:26:52.791Z,95625.00
2023-05-04T00:27:52.820Z,95623.00
2023-05-04T00:28:52.863Z,95627.00
2023-05-04T00:29:52.881Z,95625.00
2023-05-04T00:30:52.902Z,95627.00
2023-05-04T00:31:53.010Z,95627.00
2023-05-04T00:32:53.043Z,95629.00
2023-05-04T00:33:53.009Z,95625.00
2023-05-04T00:34:53.115Z,95627.00
2023-05-04T00:35:53.158Z,95625.00
2023-05-04T00:36:53.246Z,95627.00
2023-05-04T00:37:53.292Z,95625.00
2023-05-04T00:38:53.335Z,95627.00
2023-05-04T00:39:53.410Z,95625.00
2023-05-04T00:40:53.439Z,95623.00
2023-05-04T00:41:53.550Z,95623.00
2023-05-04T00:42:53.599Z,95623.00
2023-05-04T00:43:53.665Z,95625.00
2023-05-04T00:44:53.745Z,95625.00
2023-05-04T00:45:53.761Z,95627.00
2023-05-04T00:46:53.931Z,95623.00
2023-05-04T00:47:53.971Z,95625.00
2023-05-04T00:48:53.983Z,95627.00
2023-05-04T00:49:54.108Z,95625.00
2023-05-04T00:50:54.120Z,95625.00
2023-05-04T00:51:54.186Z,95625.00
2023-05-04T00:52:54.234Z,95627.00
2023-05-04T00:53:54.277Z,95625.00
2023-05-04T00:54:54.381Z,95625.00
2023-05-04T00:55:54.410Z,95625.00
2023-05-04T00:56:54.553Z,95625.00
2023-05-04T00:57:54.550Z,95625.00
2023-05-04T00:58:54.692Z,95621.00
2023-05-04T00:59:54.682Z,95621.00
2023-05-04T01:00:54.807Z,95623.00
2023-05-04T01:01:54.831Z,95623.00
2023-05-04T01:02:54.967Z,95621.00
2023-05-04T01:03:55.014Z,95621.00
2023-05-04T01:04:54.977Z,95621.00
2023-05-04T01:05:55.082Z,95621.00
2023-05-04T01:06:55.171Z,95619.00
2023-05-04T01:07:55.230Z,95621.00
2023-05-04T01:08:55.316Z,95621.00
2023-05-04T01:09:55.362Z,95621.00
2023-05-04T01:10:55.419Z,95623.00
2023-05-04T01:11:55.547Z,95621.00
2023-05-04T01:12:55.635Z,95625.00
2023-05-04T01:13:55.655Z,95623.00
2023-05-04T01:14:55.727Z,95623.00
2023-05-04T01:15:55.805Z,95623.00
2023-05-04T01:16:55.981Z,95623.00
2023-05-04T01:17:55.980Z,95621.00
2023-05-04T01:18:56.027Z,95623.00
2023-05-04T01:19:56.102Z,95623.00
2023-05-04T01:20:56.173Z,95625.00
2023-05-04T01:21:56.267Z,95623.00
2023-05-04T01:22:56.329Z,95625.00
2023-05-04T01:23:56.531Z,95625.00
2023-05-04T01:24:56.486Z,95623.00
2023-05-04T01:25:56.519Z,95625.00
2023-05-04T01:26:56.649Z,95619.00
2023-05-04T01:27:56.661Z,95619.00
2023-05-04T01:28:56.780Z,95621.00
2023-05-04T01:29:56.845Z,95621.00
2023-05-04T01:30:56.968Z,95621.00
2023-05-04T01:31:57.015Z,95621.00
2023-05-04T01:32:57.075Z,95621.00
2023-05-04T01:33:57.167Z,95623.00
2023-05-04T01:34:57.239Z,95625.00
2023-05-04T01:35:57.311Z,95621.00
2023-05-04T01:36:57.400Z,95621.00
2023-05-04T01:37:57.498Z,95623.00
2023-05-04T01:38:57.561Z,95623.00
2023-05-04T01:39:57.618Z,95623.00
2023-05-04T01:40:57.717Z,95625.00
2023-05-04T01:41:57.780Z,95625.00
2023-05-04T01:42:57.864Z,95621.00
2023-05-04T01:43:57.932Z,95621.00
2023-05-04T01:44:58.012Z,95621.00
2023-05-04T01:45:58.138Z,95623.00
2023-05-04T01:46:58.186Z,95621.00
2023-05-04T01:47:58.307Z,95619.00
2023-05-04T01:48:58.338Z,95621.00
2023-05-04T01:49:58.430Z,95621.00
2023-05-04T01:50:58.489Z,95617.00
2023-05-04T01:51:58.601Z,95621.00
2023-05-04T01:52:58.706Z,95621.00
2023-05-04T01:53:58.771Z,95621.00
2023-05-04T01:54:58.833Z,95621.00
2023-05-04T01:55:58.935Z,95621.00
2023-05-04T01:56:59.035Z,95623.00
2023-05-04T01:57:59.115Z,95625.00
2023-05-04T01:58:59.195Z,95625.00
2023-05-04T01:59:59.274Z,95623.00
2023-05-04T02:00:59.376Z,95623.00
2023-05-04T02:01:59.488Z,95625.00
2023-05-04T02:02:59.603Z,95625.00
2023-05-04T02:03:59.856Z,95625.00
2023-05-04T02:04:59.704Z,95627.00
2023-05-04T02:05:59.787Z,95627.00
2023-05-04T02:06:59.899Z,95627.00
2023-05-04T02:07:59.960Z,95623.00
2023-05-04T02:09:00.134Z,95623.00
2023-05-04T02:10:00.164Z,95625.00
2023-05-04T02:11:00.236Z,95627.00
2023-05-04T02:12:00.311Z,95625.00
2023-05-04T02:13:00.442Z,95625.00
2023-05-04T02:14:00.497Z,95629.00
2023-05-04T02:15:00.596Z,95623.00
2023-05-04T02:16:00.717Z,95623.00
2023-05-04T02:17:00.766Z,95623.00
2023-05-04T02:18:00.889Z,95627.00
2023-05-04T02:19:00.953Z,95625.00
2023-05-04T02:20:01.042Z,95625.00
2023-05-04T02:21:01.157Z,95625.00
2023-05-04T02:22:01.235Z,95625.00
2023-05-04T02:23:01.300Z,95627.00
2023-05-04T02:24:01.435Z,95625.00
2023-05-04T02:25:01.485Z,95629.00
2023-05-04T02:26:01.619Z,95629.00
2023-05-04T02:27:01.712Z,95625.00
2023-05-04T02:28:01.792Z,95625.00
2023-05-04T02:29:01.887Z,95625.00
2023-05-04T02:30:01.997Z,95627.00
2023-05-04T02:31:02.084Z,95629.00
2023-05-04T02:32:02.296Z,95625.00
2023-05-04T02:33:02.388Z,95623.00
2023-05-04T02:34:02.376Z,95625.00
2023-05-04T02:35:02.487Z,95625.00
2023-05-04T02:36:02.564Z,95625.00
2023-05-04T02:37:03.061Z,95625.00
2023-05-04T02:38:02.758Z,95627.00
2023-05-04T02:39:02.840Z,95629.00
2023-05-04T02:40:03.112Z,95627.00
2023-05-04T02:41:03.028Z,95627.00
2023-05-04T02:42:03.134Z,95629.00
2023-05-04T02:43:03.274Z,95625.00
2023-05-04T02:44:03.322Z,95627.00
2023-05-04T02:45:03.457Z,95627.00
2023-05-04T02:46:03.615Z,95627.00
2023-05-04T02:47:03.648Z,95629.00
2023-05-04T02:48:03.805Z,95629.00
2023-05-04T02:49:03.834Z,95631.00
2023-05-04T02:50:04.170Z,95631.00
2023-05-04T02:51:04.056Z,95629.00
2023-05-04T02:52:04.142Z,95629.00
2023-05-04T02:53:04.260Z,95631.00
2023-05-04T02:54:04.325Z,95635.00
2023-05-04T02:55:04.437Z,95635.00
2023-05-04T02:56:04.539Z,95633.00
2023-05-04T02:57:04.651Z,95631.00
2023-05-04T02:58:04.741Z,95633.00
2023-05-04T02:59:04.901Z,95631.00
2023-05-04T03:00:05.263Z,95633.00
2023-05-04T03:01:05.068Z,95633.00
2023-05-04T03:02:05.148Z,95633.00
2023-05-04T03:03:05.286Z,95633.00
2023-05-04T03:04:05.384Z,95631.00
2023-05-04T03:05:05.419Z,95631.00
2023-05-04T03:06:05.528Z,95633.00
2023-05-04T03:07:05.654Z,95635.00
2023-05-04T03:08:05.746Z,95631.00
2023-05-04T03:09:05.866Z,95631.00
2023-05-04T03:10:06.067Z,95633.00
2023-05-04T03:11:06.069Z,95633.00
2023-05-04T03:12:06.164Z,95635.00
2023-05-04T03:13:06.351Z,95635.00
2023-05-04T03:14:06.460Z,95635.00
2023-05-04T03:15:06.482Z,95635.00
2023-05-04T03:16:06.612Z,95637.00
2023-05-04T03:17:06.740Z,95635.00
2023-05-04T03:18:06.866Z,95637.00
2023-05-04T03:19:06.904Z,95639.00
2023-05-04T03:20:07.225Z,95635.00
2023-05-04T03:21:07.115Z,95635.00
2023-05-04T03:22:07.216Z,95637.00
2023-05-04T03:23:07.326Z,95635.00
2023-05-04T03:24:07.460Z,95639.00
2023-05-04T03:25:07.550Z,95639.00
2023-05-04T03:26:07.642Z,95639.00
2023-05-04T03:27:07.773Z,95643.00
2023-05-04T03:28:07.876Z,95641.00
2023-05-04T03:29:08.002Z,95643.00
2023-05-04T03:30:08.112Z,95643.00
2023-05-04T03:31:08.202Z,95643.00
2023-05-04T03:32:08.364Z,95643.00
2023-05-04T03:33:08.434Z,95643.00
2023-05-04T03:34:08.569Z,95643.00
2023-05-04T03:35:08.671Z,95643.00
2023-05-04T03:36:08.790Z,95645.00
2023-05-04T03:37:08.916Z,95643.00
2023-05-04T03:38:09.007Z,95643.00
2023-05-04T03:39:09.144Z,95641.00
2023-05-04T03:40:09.255Z,95645.00
2023-05-04T03:41:09.338Z,95643.00
2023-05-04T03:42:09.494Z,95643.00
2023-05-04T03:43:10.507Z,95647.00
2023-05-04T03:44:09.708Z,95647.00
2023-05-04T03:45:09.799Z,95643.00
2023-05-04T03:46:09.989Z,95645.00
2023-05-04T03:47:10.057Z,95647.00
2023-05-04T03:48:10.177Z,95645.00
2023-05-04T03:49:10.264Z,95648.00
2023-05-04T03:50:10.383Z,95647.00
2023-05-04T03:51:10.486Z,95648.00
2023-05-04T03:52:10.633Z,95647.00
2023-05-04T03:53:10.702Z,95647.00
2023-05-04T03:54:10.821Z,95647.00
2023-05-04T03:55:10.941Z,95643.00
2023-05-04T03:56:11.070Z,95645.00
2023-05-04T03:57:11.227Z,95645.00
2023-05-04T03:58:11.293Z,95643.00
2023-05-04T03:59:11.420Z,95643.00
2023-05-04T04:00:11.534Z,95645.00
2023-05-04T04:01:11.638Z,95643.00
2023-05-04T04:02:11.742Z,95645.00
2023-05-04T04:03:12.103Z,95647.00
2023-05-04T04:04:12.031Z,95647.00
2023-05-04T04:05:12.108Z,95648.00
2023-05-04T04:06:12.219Z,95647.00
2023-05-04T04:07:12.336Z,95647.00
2023-05-04T04:08:12.426Z,95647.00
2023-05-04T04:09:12.530Z,95647.00
2023-05-04T04:10:12.669Z,95647.00
2023-05-04T04:11:12.776Z,95647.00
2023-05-04T04:12:12.911Z,95647.00
2023-05-04T04:13:13.142Z,95647.00
2023-05-04T04:14:13.157Z,95647.00
2023-05-04T04:15:13.225Z,95647.00
2023-05-04T04:16:13.431Z,95647.00
2023-05-04T04:17:13.472Z,95648.00
2023-05-04T04:18:13.630Z,95650.00
2023-05-04T04:19:13.724Z,95647.00
2023-05-04T04:20:13.852Z,95648.00
2023-05-04T04:21:13.975Z,95648.00
2023-05-04T04:22:14.072Z,95648.00
2023-05-04T04:23:14.174Z,95647.00
2023-05-04T04:24:14.298Z,95648.00
2023-05-04T04:25:14.390Z,95647.00
2023-05-04T04:26:14.495Z,95647.00
2023-05-04T04:27:14.596Z,95647.00
2023-05-04T04:28:14.667Z,95650.00
2023-05-04T04:29:14.774Z,95647.00
2023-05-04T04:30:14.867Z,95648.00
2023-05-04T04:31:14.958Z,95647.00
2023-05-04T04:32:15.036Z,95648.00
2023-05-04T04:33:15.259Z,95648.00
2023-05-04T04:34:15.189Z,95647.00
2023-05-04T04:35:15.291Z,95648.00
2023-05-04T04:36:15.359Z,95650.00
2023-05-04T04:37:15.457Z,95648.00
2023-05-04T04:38:15.561Z,95645.00
2023-05-04T04:39:15.701Z,95647.00
2023-05-04T04:40:15.753Z,95643.00
2023-05-04T04:41:15.865Z,95645.00
2023-05-04T04:42:15.958Z,95641.00
2023-05-04T04:43:16.024Z,95641.00
2023-05-04T04:44:16.123Z,95641.00
2023-05-04T04:45:16.238Z,95643.00
2023-05-04T04:46:16.462Z,95643.00
2023-05-04T04:47:16.517Z,95645.00
2023-05-04T04:48:16.585Z,95647.00
2023-05-04T04:49:16.649Z,95643.00
2023-05-04T04:50:16.764Z,95645.00
2023-05-04T04:51:16.849Z,95647.00
2023-05-04T04:52:16.974Z,95647.00
2023-05-04T04:53:18.032Z,95647.00
2023-05-04T04:54:17.136Z,95647.00
2023-05-04T04:55:17.207Z,95647.00
2023-05-04T04:56:17.343Z,95647.00
2023-05-04T04:57:17.445Z,95648.00
2023-05-04T04:58:17.526Z,95648.00
2023-05-04T04:59:17.670Z,95648.00
2023-05-04T05:00:17.718Z,95650.00
2023-05-04T05:01:18.063Z,95647.00
2023-05-04T05:02:17.943Z,95650.00
2023-05-04T05:03:18.108Z,95648.00
2023-05-04T05:04:18.143Z,95650.00
2023-05-04T05:05:18.232Z,95650.00
2023-05-04T05:06:18.344Z,95650.00
2023-05-04T05:07:18.418Z,95652.00
2023-05-04T05:08:18.501Z,95652.00
2023-05-04T05:09:18.611Z,95652.00
2023-05-04T05:10:18.705Z,95654.00
2023-05-04T05:11:18.784Z,95654.00
2023-05-04T05:12:18.896Z,95654.00
2023-05-04T05:13:18.985Z,95654.00
2023-05-04T05:14:19.096Z,95654.00
2023-05-04T05:15:19.181Z,95652.00
2023-05-04T05:16:19.295Z,95654.00
2023-05-04T05:17:19.340Z,95650.00
2023-05-04T05:18:19.456Z,95652.00
2023-05-04T05:19:19.526Z,95650.00
2023-05-04T05:20:19.587Z,95652.00
2023-05-04T05:21:19.660Z,95652.00
2023-05-04T05:22:19.735Z,95654.00
2023-05-04T05:23:19.749Z,95652.00
2023-05-04T05:24:19.846Z,95650.00
2023-05-04T05:25:19.926Z,95650.00
2023-05-04T05:26:20.034Z,95650.00
2023-05-04T05:27:20.102Z,95648.00
2023-05-04T05:28:20.215Z,95648.00
2023-05-04T05:29:20.320Z,95648.00
2023-05-04T05:30:20.425Z,95647.00
2023-05-04T05:31:20.601Z,95650.00
2023-05-04T05:32:20.655Z,95650.00
2023-05-04T05:33:20.753Z,95647.00
2023-05-04T05:34:20.824Z,95648.00
2023-05-04T05:35:20.953Z,95647.00
2023-05-04T05:36:21.018Z,95647.00
2023-05-04T05:37:21.064Z,95645.00
2023-05-04T05:38:21.162Z,95648.00
2023-05-04T05:39:21.230Z,95648.00
2023-05-04T05:40:21.333Z,95650.00
2023-05-04T05:41:21.488Z,95648.00
2023-05-04T05:42:22.059Z,95652.00
2023-05-04T05:43:21.690Z,95652.00
2023-05-04T05:44:21.788Z,95654.00
2023-05-04T05:45:21.933Z,95650.00
2023-05-04T05:46:22.109Z,95652.00
2023-05-04T05:47:22.229Z,95654.00
2023-05-04T05:48:22.308Z,95652.00
2023-05-04T05:49:22.422Z,95652.00
2023-05-04T05:50:22.520Z,95652.00
2023-05-04T05:51:22.645Z,95650.00
2023-05-04T05:52:22.772Z,95650.00
2023-05-04T05:53:22.871Z,95654.00
2023-05-04T05:54:22.958Z,95654.00
2023-05-04T05:55:23.091Z,95650.00
2023-05-04T05:56:23.178Z,95650.00
2023-05-04T05:57:23.551Z,95648.00
2023-05-04T05:58:23.337Z,95650.00
2023-05-04T05:59:23.466Z,95654.00
2023-05-04T06:00:23.563Z,95654.00
2023-05-04T06:01:24.214Z,95654.00
2023-05-04T06:02:23.812Z,95654.00
2023-05-04T06:03:23.988Z,95650.00
2023-05-04T06:04:23.935Z,95650.00
2023-05-04T06:05:23.948Z,95648.00
2023-05-04T06:06:24.041Z,95650.00
2023-05-04T06:07:24.115Z,95650.00
2023-05-04T06:08:24.191Z,95648.00
2023-05-04T06:09:24.269Z,95647.00
2023-05-04T06:10:24.297Z,95648.00
2023-05-04T06:11:24.389Z,95648.00
2023-05-04T06:12:24.457Z,95647.00
2023-05-04T06:13:24.473Z,95647.00
2023-05-04T06:14:24.547Z,95647.00
2023-05-04T06:15:24.620Z,95643.00
2023-05-04T06:16:24.747Z,95645.00
2023-05-04T06:17:24.750Z,95643.00
2023-05-04T06:18:24.777Z,95639.00
2023-05-04T06:19:24.828Z,95639.00
2023-05-04T06:20:24.870Z,95641.00
2023-05-04T06:21:25.017Z,95639.00
2023-05-04T06:22:25.014Z,95639.00
2023-05-04T06:23:25.076Z,95639.00
2023-05-04T06:24:25.094Z,95639.00
2023-05-04T06:25:25.155Z,95637.00
2023-05-04T06:26:25.173Z,95635.00
2023-05-04T06:27:25.275Z,95635.00
2023-05-04T06:28:25.293Z,95635.00
2023-05-04T06:29:25.351Z,95633.00
2023-05-04T06:30:25.376Z,95635.00
2023-05-04T06:31:25.530Z,95633.00
2023-05-04T06:32:25.540Z,95631.00
2023-05-04T06:33:25.581Z,95631.00
2023-05-04T06:34:25.643Z,95629.00
2023-05-04T06:35:25.771Z,95631.00
2023-05-04T06:36:25.832Z,95631.00
2023-05-04T06:37:25.915Z,95627.00
2023-05-04T06:38:25.997Z,95629.00
2023-05-04T06:39:26.065Z,95629.00
2023-05-04T06:40:26.159Z,95625.00
2023-05-04T06:41:26.196Z,95627.00
2023-05-04T06:42:26.292Z,95629.00
2023-05-04T06:43:26.356Z,95627.00
2023-05-04T06:44:26.409Z,95629.00
2023-05-04T06:45:26.532Z,95621.00
2023-05-04T06:46:26.642Z,95623.00
2023-05-04T06:47:26.721Z,95623.00
2023-05-04T06:48:26.757Z,95621.00
2023-05-04T06:49:26.826Z,95621.00
2023-05-04T06:50:26.957Z,95619.00
2023-05-04T06:51:27.023Z,95617.00
2023-05-04T06:52:27.124Z,95619.00
2023-05-04T06:53:27.204Z,95617.00
2023-05-04T06:54:27.268Z,95617.00
2023-05-04T06:55:27.356Z,95617.00
2023-05-04T06:56:27.429Z,95619.00
2023-05-04T06:57:27.510Z,95613.00
2023-05-04T06:58:27.580Z,95611.00
2023-05-04T06:59:27.667Z,95611.00
2023-05-04T07:00:27.801Z,95611.00
2023-05-04T07:01:27.896Z,95609.00
2023-05-04T07:02:28.018Z,95607.00
2023-05-04T07:03:28.097Z,95609.00
2023-05-04T07:04:28.201Z,95611.00
2023-05-04T07:05:28.266Z,95607.00
2023-05-04T07:06:28.380Z,95607.00
2023-05-04T07:07:28.525Z,95607.00
2023-05-04T07:08:28.622Z,95607.00
2023-05-04T07:09:28.721Z,95607.00
2023-05-04T07:10:28.815Z,95605.00
2023-05-04T07:11:28.948Z,95603.00
2023-05-04T07:12:29.103Z,95603.00
2023-05-04T07:13:29.149Z,95603.00
2023-05-04T07:14:29.243Z,95603.00
2023-05-04T07:15:29.315Z,95603.00
2023-05-04T07:16:29.471Z,95600.00
2023-05-04T07:17:29.524Z,95598.00
2023-05-04T07:18:29.608Z,95598.00
2023-05-04T07:19:29.710Z,95598.00
2023-05-04T07:20:29.845Z,95596.00
2023-05-04T07:21:29.967Z,95598.00
2023-05-04T07:22:30.056Z,95596.00
2023-05-04T07:23:30.149Z,95596.00
2023-05-04T07:24:30.260Z,95592.00
2023-05-04T07:25:30.370Z,95594.00
2023-05-04T07:26:30.440Z,95590.00
2023-05-04T07:27:30.584Z,95592.00
2023-05-04T07:28:30.691Z,95590.00
2023-05-04T07:29:30.757Z,95590.00
2023-05-04T07:30:30.839Z,95586.00
2023-05-04T07:31:31.045Z,95586.00
2023-05-04T07:32:31.038Z,95586.00
2023-05-04T07:33:31.146Z,95584.00
2023-05-04T07:34:44.616Z,95584.00
2023-05-04T07:35:32.287Z,95580.00
2023-05-04T07:36:31.302Z,95580.00
2023-05-04T07:37:31.589Z,95578.00
2023-05-04T07:38:31.378Z,95578.00
2023-05-04T07:39:31.425Z,95578.00
2023-05-04T07:40:31.463Z,95576.00
2023-05-04T07:41:31.477Z,95570.00
2023-05-04T07:42:31.590Z,95572.00
2023-05-04T07:43:31.555Z,95568.00
2023-05-04T07:44:31.671Z,95566.00
2023-05-04T07:45:31.705Z,95560.00
2023-05-04T07:46:31.835Z,95562.00
2023-05-04T07:47:32.183Z,95558.00
2023-05-04T07:48:31.919Z,95553.00
2023-05-04T07:49:32.027Z,95554.00
2023-05-04T07:50:32.059Z,95547.00
2023-05-04T07:51:32.154Z,95547.00
2023-05-04T07:52:32.275Z,95545.00
2023-05-04T07:53:32.352Z,95545.00
2023-05-04T07:54:32.432Z,95541.00
2023-05-04T07:55:32.527Z,95541.00
2023-05-04T07:56:32.628Z,95539.00
2023-05-04T07:57:32.683Z,95535.00
2023-05-04T07:58:32.714Z,95535.00
2023-05-04T07:59:32.823Z,95531.00
2023-05-04T08:00:32.886Z,95531.00
2023-05-04T08:01:33.026Z,95531.00
2023-05-04T08:02:33.146Z,95529.00
2023-05-04T08:03:33.127Z,95527.00
2023-05-04T08:04:33.225Z,95523.00
2023-05-04T08:05:33.310Z,95521.00
2023-05-04T08:06:33.391Z,95519.00
2023-05-04T08:07:33.457Z,95517.00
2023-05-04T08:08:33.552Z,95517.00
2023-05-04T08:09:33.587Z,95515.00
2023-05-04T08:10:33.693Z,95515.00
2023-05-04T08:11:33.735Z,95513.00
2023-05-04T08:12:33.857Z,95511.00
2023-05-04T08:13:33.894Z,95511.00
2023-05-04T08:14:34.137Z,95513.00
2023-05-04T08:15:34.010Z,95511.00
2023-05-04T08:16:34.127Z,95509.00
2023-05-04T08:17:34.216Z,95509.00
2023-05-04T08:18:34.236Z,95507.00
2023-05-04T08:19:34.295Z,95507.00
2023-05-04T08:20:34.428Z,95506.00
2023-05-04T08:21:34.454Z,95506.00
2023-05-04T08:22:34.546Z,95506.00
2023-05-04T08:23:34.599Z,95506.00
2023-05-04T08:24:34.680Z,95504.00
2023-05-04T08:25:34.770Z,95502.00
2023-05-04T08:26:34.856Z,95504.00
2023-05-04T08:27:34.936Z,95504.00
2023-05-04T08:28:35.011Z,95502.00
2023-05-04T08:29:35.097Z,95504.00
2023-05-04T08:30:35.151Z,95498.00
2023-05-04T08:31:35.316Z,95502.00
2023-05-04T08:32:35.385Z,95498.00
2023-05-04T08:33:35.401Z,95498.00
2023-05-04T08:34:35.445Z,95496.00
2023-05-04T08:35:35.563Z,95496.00
2023-05-04T08:36:35.678Z,95496.00
2023-05-04T08:37:35.723Z,95492.00
2023-05-04T08:38:35.787Z,95494.00
2023-05-04T08:39:35.905Z,95492.00
2023-05-04T08:40:35.953Z,95492.00
2023-05-04T08:41:36.041Z,95492.00
2023-05-04T08:42:36.139Z,95492.00
2023-05-04T08:43:36.239Z,95490.00
2023-05-04T08:44:36.227Z,95488.00
2023-05-04T08:45:36.333Z,95492.00
2023-05-04T08:46:36.370Z,95490.00
2023-05-04T08:47:36.675Z,95488.00
2023-05-04T08:48:36.496Z,95488.00
2023-05-04T08:49:36.604Z,95488.00
2023-05-04T08:50:36.654Z,95488.00
2023-05-04T08:51:36.777Z,95486.00
2023-05-04T08:52:36.832Z,95486.00
2023-05-04T08:53:36.851Z,95484.00
2023-05-04T08:54:36.934Z,95480.00
2023-05-04T08:55:37.026Z,95480.00
2023-05-04T08:56:37.049Z,95482.00
2023-05-04T08:57:37.171Z,95478.00
2023-05-04T08:58:37.238Z,95482.00
2023-05-04T08:59:37.309Z,95482.00
2023-05-04T09:00:37.415Z,95482.00
2023-05-04T09:01:37.440Z,95482.00
2023-05-04T09:02:37.693Z,95480.00
2023-05-04T09:03:37.753Z,95478.00
2023-05-04T09:04:37.756Z,95480.00
2023-05-04T09:05:37.739Z,95478.00
2023-05-04T09:06:37.838Z,95478.00
2023-05-04T09:07:37.958Z,95476.00
2023-05-04T09:08:38.007Z,95476.00
2023-05-04T09:09:38.121Z,95474.00
2023-05-04T09:10:38.264Z,95472.00
2023-05-04T09:11:38.302Z,95478.00
2023-05-04T09:12:38.441Z,95476.00
2023-05-04T09:13:38.441Z,95476.00
2023-05-04T09:14:38.535Z,95476.00
2023-05-04T09:15:38.651Z,95478.00
2023-05-04T09:16:38.756Z,95474.00
2023-05-04T09:17:50.946Z,95472.00
2023-05-04T09:18:39.801Z,95468.00
2023-05-04T09:19:38.807Z,95464.00
2023-05-04T09:20:38.834Z,95466.00
2023-05-04T09:21:38.881Z,95462.00
2023-05-04T09:22:38.928Z,95460.00
2023-05-04T09:23:38.980Z,95460.00
2023-05-04T09:24:38.931Z,95460.00
2023-05-04T09:25:38.944Z,95459.00
2023-05-04T09:26:38.984Z,95457.00
2023-05-04T09:27:39.012Z,95453.00
2023-05-04T09:28:39.048Z,95451.00
2023-05-04T09:29:39.051Z,95449.00
2023-05-04T09:30:39.097Z,95445.00
2023-05-04T09:31:39.243Z,95445.00
2023-05-04T09:32:39.149Z,95445.00
2023-05-04T09:33:39.152Z,95441.00
2023-05-04T09:34:39.168Z,95441.00
2023-05-04T09:35:39.248Z,95445.00
2023-05-04T09:36:39.292Z,95445.00
2023-05-04T09:37:39.674Z,95443.00
2023-05-04T09:38:39.309Z,95441.00
2023-05-04T09:39:39.362Z,95441.00
2023-05-04T09:40:39.483Z,95441.00
2023-05-04T09:41:39.453Z,95437.00
2023-05-04T09:42:39.493Z,95435.00
2023-05-04T09:43:39.649Z,95435.00
2023-05-04T09:44:39.570Z,95429.00
2023-05-04T09:45:39.610Z,95417.00
2023-05-04T09:46:39.695Z,95419.00
2023-05-04T09:47:39.769Z,95417.00
2023-05-04T09:48:40.160Z,95415.00
2023-05-04T09:49:39.840Z,95411.00
2023-05-04T09:50:39.895Z,95411.00
2023-05-04T09:51:39.957Z,95411.00
2023-05-04T09:52:40.061Z,95407.00
2023-05-04T09:53:40.116Z,95406.00
2023-05-04T09:54:40.187Z,95407.00
2023-05-04T09:55:40.268Z,95407.00
2023-05-04T09:56:40.340Z,95407.00
2023-05-04T09:57:40.423Z,95404.00
2023-05-04T09:58:40.490Z,95400.00
2023-05-04T09:59:40.582Z,95402.00
2023-05-04T10:00:40.672Z,95398.00
2023-05-04T10:01:42.249Z,95398.00
2023-05-04T10:02:40.871Z,95398.00
2023-05-04T10:03:40.813Z,95398.00
2023-05-04T10:04:40.788Z,95396.00
2023-05-04T10:05:40.880Z,95396.00
2023-05-04T10:06:40.840Z,95394.00
2023-05-04T10:07:41.638Z,95388.00
2023-05-04T10:08:40.895Z,95388.00
2023-05-04T10:09:40.936Z,95388.00
2023-05-04T10:10:40.939Z,95384.00
2023-05-04T10:11:40.991Z,95378.00
2023-05-04T10:12:41.042Z,95378.00
2023-05-04T10:13:41.042Z,95376.00
2023-05-04T10:14:41.098Z,95372.00
2023-05-04T10:15:41.128Z,95374.00
2023-05-04T10:16:41.107Z,95374.00
2023-05-04T10:17:41.224Z,95370.00
2023-05-04T10:18:41.170Z,95368.00
2023-05-04T10:19:41.171Z,95362.00
2023-05-04T10:20:41.224Z,95362.00
2023-05-04T10:21:41.284Z,95365.00
2023-05-04T10:22:41.286Z,95362.00
2023-05-04T10:23:41.324Z,95360.00
2023-05-04T10:24:41.325Z,95360.00
2023-05-04T10:25:41.367Z,95359.00
2023-05-04T10:26:41.409Z,95357.00
2023-05-04T10:27:41.456Z,95357.00
2023-05-04T10:28:41.466Z,95353.00
2023-05-04T10:29:41.476Z,95355.00
2023-05-04T10:30:41.484Z,95353.00
2023-05-04T10:31:41.604Z,95351.00
2023-05-04T10:32:41.598Z,95351.00
2023-05-04T10:33:41.613Z,95349.00
2023-05-04T10:34:41.588Z,95349.00
2023-05-04T10:35:41.643Z,95347.00
2023-05-04T10:36:41.680Z,95345.00
2023-05-04T10:37:41.701Z,95347.00
2023-05-04T10:38:41.728Z,95343.00
2023-05-04T10:39:41.742Z,95341.00
2023-05-04T10:40:41.938Z,95341.00
2023-05-04T10:41:41.848Z,95341.00
2023-05-04T10:42:41.844Z,95335.00
2023-05-04T10:43:41.862Z,95333.00
2023-05-04T10:44:41.955Z,95331.00
2023-05-04T10:45:42.091Z,95329.00
2023-05-04T10:46:42.066Z,95329.00
2023-05-04T10:47:42.136Z,95327.00
2023-05-04T10:48:42.181Z,95325.00
2023-05-04T10:49:42.272Z,95321.00
2023-05-04T10:50:42.352Z,95325.00
2023-05-04T10:51:48.951Z,95323.00
2023-05-04T10:52:43.444Z,95319.00
2023-05-04T10:53:42.449Z,95319.00
2023-05-04T10:54:42.511Z,95317.00
2023-05-04T10:55:42.486Z,95313.00
2023-05-04T10:56:42.609Z,95312.00
2023-05-04T10:57:42.544Z,95313.00
2023-05-04T10:58:42.613Z,95310.00
2023-05-04T10:59:42.637Z,95304.00
2023-05-04T11:00:42.683Z,95306.00
2023-05-04T11:01:42.732Z,95298.00
2023-05-04T11:02:42.826Z,95298.00
2023-05-04T11:03:42.818Z,95300.00
2023-05-04T11:04:42.749Z,95296.00
2023-05-04T11:05:42.754Z,95294.00
2023-05-04T11:06:42.823Z,95292.00
2023-05-04T11:07:42.845Z,95292.00
2023-05-04T11:08:43.196Z,95292.00
2023-05-04T11:09:42.868Z,95286.00
2023-05-04T11:10:42.871Z,95286.00
2023-05-04T11:11:42.913Z,95286.00
2023-05-04T11:12:43.088Z,95282.00
2023-05-04T11:13:43.032Z,95282.00
2023-05-04T11:14:43.488Z,95280.00
2023-05-04T11:15:43.142Z,95278.00
2023-05-04T11:16:43.244Z,95278.00
2023-05-04T11:17:43.313Z,95276.00
2023-05-04T11:18:43.301Z,95274.00
2023-05-04T11:19:43.407Z,95278.00
2023-05-04T11:20:43.425Z,95274.00
2023-05-04T11:21:43.516Z,95274.00
2023-05-04T11:22:43.548Z,95276.00
2023-05-04T11:23:43.600Z,95276.00
2023-05-04T11:24:44.199Z,95273.00
2023-05-04T11:25:43.698Z,95271.00
2023-05-04T11:26:43.776Z,95271.00
2023-05-04T11:27:43.812Z,95271.00
2023-05-04T11:28:44.213Z,95269.00
2023-05-04T11:29:43.947Z,95267.00
2023-05-04T11:30:43.964Z,95267.00
2023-05-04T11:31:44.084Z,95265.00
2023-05-04T11:32:44.171Z,95263.00
2023-05-04T11:33:44.176Z,95261.00
2023-05-04T11:34:44.177Z,95259.00
2023-05-04T11:35:44.205Z,95259.00
2023-05-04T11:36:44.294Z,95255.00
2023-05-04T11:37:44.324Z,95255.00
2023-05-04T11:38:44.387Z,95251.00
2023-05-04T11:39:44.406Z,95253.00
2023-05-04T11:40:44.465Z,95253.00
2023-05-04T11:41:44.494Z,95253.00
2023-05-04T11:42:44.549Z,95251.00
2023-05-04T11:43:44.613Z,95249.00
2023-05-04T11:44:44.677Z,95249.00
2023-05-04T11:45:44.686Z,95249.00